sensor_id;sensor_type;location;lat;lon;timestamp;pressure;altitude;pressure_sealevel;temperature;humidity
64211;BME280;50528;48.514;14.394;2022-09-01T00:00:54;94180.39;;;14.31;81.14
64211;BME280;50528;48.514;14.394;2022-09-01T00:01:57;94181.36;;;14.31;81.19
64211;BME280;50528;48.514;14.394;2022-09-01T00:03:00;94180.30;;;14.31;80.99
64211;BME280;50528;48.514;14.394;2022-09-01T00:04:04;94179.83;;;14.30;80.85
64211;BME280;50528;48.514;14.394;2022-09-01T00:05:08;94179.34;;;14.30;81.06
64211;BME280;50528;48.514;14.394;2022-09-01T00:06:11;94179.45;;;14.29;81.24
64211;BME280;50528;48.514;14.394;2022-09-01T00:07:14;94179.45;;;14.30;81.27
64211;BME280;50528;48.514;14.394;2022-09-01T00:08:20;94181.46;;;14.30;81.48
64211;BME280;50528;48.514;14.394;2022-09-01T00:09:23;94181.20;;;14.31;81.31
64211;BME280;50528;48.514;14.394;2022-09-01T00:10:26;94182.73;;;14.31;81.32
64211;BME280;50528;48.514;14.394;2022-09-01T00:11:30;94180.92;;;14.31;81.36
64211;BME280;50528;48.514;14.394;2022-09-01T00:12:33;94182.35;;;14.31;81.28
64211;BME280;50528;48.514;14.394;2022-09-01T00:13:37;94181.30;;;14.31;81.58
64211;BME280;50528;48.514;14.394;2022-09-01T00:14:40;94181.77;;;14.31;81.21
64211;BME280;50528;48.514;14.394;2022-09-01T00:15:43;94182.53;;;14.30;81.38
64211;BME280;50528;48.514;14.394;2022-09-01T00:16:46;94169.43;;;14.19;81.30
64211;BME280;50528;48.514;14.394;2022-09-01T00:17:53;94179.27;;;14.26;81.31
64211;BME280;50528;48.514;14.394;2022-09-01T00:18:56;94185.20;;;14.27;81.36
64211;BME280;50528;48.514;14.394;2022-09-01T00:19:59;94178.37;;;14.26;81.36
64211;BME280;50528;48.514;14.394;2022-09-01T00:21:02;94178.48;;;14.27;81.38
64211;BME280;50528;48.514;14.394;2022-09-01T00:22:06;94179.70;;;14.27;81.46
64211;BME280;50528;48.514;14.394;2022-09-01T00:23:09;94177.73;;;14.27;81.53
64211;BME280;50528;48.514;14.394;2022-09-01T00:24:13;94180.02;;;14.27;81.42
64211;BME280;50528;48.514;14.394;2022-09-01T00:25:18;94178.42;;;14.27;81.26
64211;BME280;50528;48.514;14.394;2022-09-01T00:26:22;94174.04;;;14.27;81.60
64211;BME280;50528;48.514;14.394;2022-09-01T00:27:29;94174.36;;;14.27;81.66
64211;BME280;50528;48.514;14.394;2022-09-01T00:28:33;94171.60;;;14.26;81.59
64211;BME280;50528;48.514;14.394;2022-09-01T00:29:36;94172.55;;;14.26;81.74
64211;BME280;50528;48.514;14.394;2022-09-01T00:30:44;94172.77;;;14.26;81.49
64211;BME280;50528;48.514;14.394;2022-09-01T00:31:48;94174.02;;;14.26;81.25
64211;BME280;50528;48.514;14.394;2022-09-01T00:32:51;94169.65;;;14.26;81.59
64211;BME280;50528;48.514;14.394;2022-09-01T00:33:54;94171.14;;;14.25;81.85
64211;BME280;50528;48.514;14.394;2022-09-01T00:34:57;94172.36;;;14.25;81.58
64211;BME280;50528;48.514;14.394;2022-09-01T00:36:01;94170.55;;;14.23;81.78
64211;BME280;50528;48.514;14.394;2022-09-01T00:37:04;94173.84;;;14.24;81.54
64211;BME280;50528;48.514;14.394;2022-09-01T00:38:07;94174.57;;;14.23;81.23
64211;BME280;50528;48.514;14.394;2022-09-01T00:39:10;94174.67;;;14.22;81.07
64211;BME280;50528;48.514;14.394;2022-09-01T00:40:15;94174.77;;;14.22;81.10
64211;BME280;50528;48.514;14.394;2022-09-01T00:41:23;94170.27;;;14.19;81.12
64211;BME280;50528;48.514;14.394;2022-09-01T00:42:27;94173.19;;;14.20;81.15
64211;BME280;50528;48.514;14.394;2022-09-01T00:44:42;94168.63;;;14.16;81.51
64211;BME280;50528;48.514;14.394;2022-09-01T00:45:48;94171.38;;;14.18;81.45
64211;BME280;50528;48.514;14.394;2022-09-01T00:46:54;94172.91;;;14.17;81.38
64211;BME280;50528;48.514;14.394;2022-09-01T00:47:58;94176.66;;;14.17;81.24
64211;BME280;50528;48.514;14.394;2022-09-01T00:49:09;94176.86;;;14.16;81.40
64211;BME280;50528;48.514;14.394;2022-09-01T00:50:14;94173.30;;;14.14;81.31
64211;BME280;50528;48.514;14.394;2022-09-01T00:51:18;94173.80;;;14.13;81.45
64211;BME280;50528;48.514;14.394;2022-09-01T00:52:24;94172.70;;;14.13;81.34
64211;BME280;50528;48.514;14.394;2022-09-01T00:53:31;94169.14;;;14.10;81.67
64211;BME280;50528;48.514;14.394;2022-09-01T00:54:35;94174.69;;;14.11;81.39
64211;BME280;50528;48.514;14.394;2022-09-01T00:55:39;94173.05;;;14.09;81.91
64211;BME280;50528;48.514;14.394;2022-09-01T00:56:42;94174.80;;;14.07;81.91
64211;BME280;50528;48.514;14.394;2022-09-01T00:57:48;94173.15;;;14.07;82.05
64211;BME280;50528;48.514;14.394;2022-09-01T00:58:51;94171.35;;;14.06;82.06
64211;BME280;50528;48.514;14.394;2022-09-01T00:59:59;94171.19;;;14.05;81.68
64211;BME280;50528;48.514;14.394;2022-09-01T01:01:05;94170.02;;;14.03;81.68
64211;BME280;50528;48.514;14.394;2022-09-01T01:02:08;94170.95;;;14.03;81.72
64211;BME280;50528;48.514;14.394;2022-09-01T01:03:13;94173.33;;;14.03;81.85
64211;BME280;50528;48.514;14.394;2022-09-01T01:04:19;94175.30;;;14.02;82.14
64211;BME280;50528;48.514;14.394;2022-09-01T01:05:28;94176.77;;;14.01;82.01
64211;BME280;50528;48.514;14.394;2022-09-01T01:06:35;94177.41;;;14.00;81.84
64211;BME280;50528;48.514;14.394;2022-09-01T01:07:37;94178.79;;;14.00;81.68
64211;BME280;50528;48.514;14.394;2022-09-01T01:08:49;94174.70;;;13.99;81.68
64211;BME280;50528;48.514;14.394;2022-09-01T01:10:02;94176.96;;;13.97;81.58
64211;BME280;50528;48.514;14.394;2022-09-01T01:11:09;94175.73;;;13.97;81.55
64211;BME280;50528;48.514;14.394;2022-09-01T01:12:19;94177.13;;;13.95;81.73
64211;BME280;50528;48.514;14.394;2022-09-01T01:13:23;94176.64;;;13.93;81.97
64211;BME280;50528;48.514;14.394;2022-09-01T01:14:27;94163.70;;;13.82;81.97
64211;BME280;50528;48.514;14.394;2022-09-01T01:15:33;94175.73;;;13.90;82.08
64211;BME280;50528;48.514;14.394;2022-09-01T01:16:37;94178.53;;;13.90;81.81
64211;BME280;50528;48.514;14.394;2022-09-01T01:17:46;94175.46;;;13.89;81.84
64211;BME280;50528;48.514;14.394;2022-09-01T01:18:49;94177.80;;;13.89;81.80
64211;BME280;50528;48.514;14.394;2022-09-01T01:19:53;94177.52;;;13.88;81.98
64211;BME280;50528;48.514;14.394;2022-09-01T01:21:24;94179.00;;;13.88;81.56
64211;BME280;50528;48.514;14.394;2022-09-01T01:25:14;94174.48;;;13.85;81.77
64211;BME280;50528;48.514;14.394;2022-09-01T01:26:20;94173.20;;;13.84;81.80
64211;BME280;50528;48.514;14.394;2022-09-01T01:27:23;94172.48;;;13.84;81.57
64211;BME280;50528;48.514;14.394;2022-09-01T01:28:33;94170.79;;;13.83;81.54
64211;BME280;50528;48.514;14.394;2022-09-01T01:29:38;94174.33;;;13.82;81.45
64211;BME280;50528;48.514;14.394;2022-09-01T01:30:43;94174.52;;;13.81;81.59
64211;BME280;50528;48.514;14.394;2022-09-01T01:31:47;94173.73;;;13.80;81.53
64211;BME280;50528;48.514;14.394;2022-09-01T01:32:53;94175.15;;;13.80;81.32
64211;BME280;50528;48.514;14.394;2022-09-01T01:34:03;94173.35;;;13.79;81.41
64211;BME280;50528;48.514;14.394;2022-09-01T01:35:13;94173.98;;;13.77;81.51
64211;BME280;50528;48.514;14.394;2022-09-01T01:36:23;94169.80;;;13.76;81.39
64211;BME280;50528;48.514;14.394;2022-09-01T01:37:41;94171.06;;;13.75;81.30
64211;BME280;50528;48.514;14.394;2022-09-01T01:38:47;94169.36;;;13.73;81.39
64211;BME280;50528;48.514;14.394;2022-09-01T01:39:51;94168.52;;;13.72;81.21
64211;BME280;50528;48.514;14.394;2022-09-01T01:40:54;94169.15;;;13.70;81.20
64211;BME280;50528;48.514;14.394;2022-09-01T01:41:57;94171.73;;;13.67;81.09
64211;BME280;50528;48.514;14.394;2022-09-01T01:43:01;94168.87;;;13.66;80.97
64211;BME280;50528;48.514;14.394;2022-09-01T01:44:05;94165.98;;;13.63;80.94
64211;BME280;50528;48.514;14.394;2022-09-01T01:45:08;94168.20;;;13.61;80.86
64211;BME280;50528;48.514;14.394;2022-09-01T01:46:14;94168.23;;;13.57;81.02
64211;BME280;50528;48.514;14.394;2022-09-01T01:47:19;94165.31;;;13.53;80.99
64211;BME280;50528;48.514;14.394;2022-09-01T01:48:23;94160.23;;;13.49;81.03
64211;BME280;50528;48.514;14.394;2022-09-01T01:49:27;94166.25;;;13.50;81.00
64211;BME280;50528;48.514;14.394;2022-09-01T01:50:35;94164.17;;;13.46;80.91
64211;BME280;50528;48.514;14.394;2022-09-01T01:51:39;94167.12;;;13.45;80.75
64211;BME280;50528;48.514;14.394;2022-09-01T01:52:42;94160.17;;;13.40;80.77
64211;BME280;50528;48.514;14.394;2022-09-01T01:53:49;94162.92;;;13.39;80.73
64211;BME280;50528;48.514;14.394;2022-09-01T01:54:58;94165.07;;;13.37;80.72
64211;BME280;50528;48.514;14.394;2022-09-01T01:56:06;94164.59;;;13.36;80.69
64211;BME280;50528;48.514;14.394;2022-09-01T01:57:13;94167.79;;;13.33;80.71
64211;BME280;50528;48.514;14.394;2022-09-01T01:58:20;94168.05;;;13.31;80.76
64211;BME280;50528;48.514;14.394;2022-09-01T01:59:24;94168.52;;;13.29;80.67
64211;BME280;50528;48.514;14.394;2022-09-01T02:00:30;94169.50;;;13.28;80.63
64211;BME280;50528;48.514;14.394;2022-09-01T02:01:34;94169.02;;;13.25;80.46
64211;BME280;50528;48.514;14.394;2022-09-01T02:02:38;94166.39;;;13.22;80.47
64211;BME280;50528;48.514;14.394;2022-09-01T02:03:41;94162.11;;;13.19;80.48
64211;BME280;50528;48.514;14.394;2022-09-01T02:04:44;94156.95;;;13.14;80.47
64211;BME280;50528;48.514;14.394;2022-09-01T02:05:48;94163.71;;;13.15;80.60
64211;BME280;50528;48.514;14.394;2022-09-01T02:06:51;94162.44;;;13.13;80.47
64211;BME280;50528;48.514;14.394;2022-09-01T02:07:55;94159.59;;;13.10;80.49
64211;BME280;50528;48.514;14.394;2022-09-01T02:09:02;94162.00;;;13.07;80.39
64211;BME280;50528;48.514;14.394;2022-09-01T02:10:05;94162.14;;;13.05;80.38
64211;BME280;50528;48.514;14.394;2022-09-01T02:11:08;94162.77;;;13.03;80.38
64211;BME280;50528;48.514;14.394;2022-09-01T02:12:12;94162.71;;;13.01;80.33
64211;BME280;50528;48.514;14.394;2022-09-01T02:13:18;94159.09;;;12.98;80.26
64211;BME280;50528;48.514;14.394;2022-09-01T02:14:22;94163.93;;;12.96;80.32
64211;BME280;50528;48.514;14.394;2022-09-01T02:15:25;94161.83;;;12.91;80.31
64211;BME280;50528;48.514;14.394;2022-09-01T02:16:29;94162.23;;;12.88;80.46
64211;BME280;50528;48.514;14.394;2022-09-01T02:17:35;94160.58;;;12.84;80.52
64211;BME280;50528;48.514;14.394;2022-09-01T02:18:44;94159.98;;;12.82;80.56
64211;BME280;50528;48.514;14.394;2022-09-01T02:19:51;94163.28;;;12.80;80.50
64211;BME280;50528;48.514;14.394;2022-09-01T02:20:59;94160.95;;;12.79;80.44
64211;BME280;50528;48.514;14.394;2022-09-01T02:22:02;94163.30;;;12.76;80.46
64211;BME280;50528;48.514;14.394;2022-09-01T02:23:05;94163.12;;;12.73;80.36
64211;BME280;50528;48.514;14.394;2022-09-01T02:24:13;94166.02;;;12.72;80.31
64211;BME280;50528;48.514;14.394;2022-09-01T02:25:17;94163.48;;;12.70;80.38
64211;BME280;50528;48.514;14.394;2022-09-01T02:26:21;94161.98;;;12.68;80.15
64211;BME280;50528;48.514;14.394;2022-09-01T02:27:28;94162.12;;;12.67;80.15
64211;BME280;50528;48.514;14.394;2022-09-01T02:28:32;94162.27;;;12.65;80.07
64211;BME280;50528;48.514;14.394;2022-09-01T02:29:36;94157.07;;;12.62;80.16
64211;BME280;50528;48.514;14.394;2022-09-01T02:30:45;94156.54;;;12.60;80.17
64211;BME280;50528;48.514;14.394;2022-09-01T02:31:52;94157.43;;;12.59;80.12
64211;BME280;50528;48.514;14.394;2022-09-01T02:32:55;94159.36;;;12.58;80.21
64211;BME280;50528;48.514;14.394;2022-09-01T02:34:00;94158.70;;;12.56;80.11
64211;BME280;50528;48.514;14.394;2022-09-01T02:35:04;94158.73;;;12.55;80.12
64211;BME280;50528;48.514;14.394;2022-09-01T02:36:10;94159.06;;;12.54;80.13
64211;BME280;50528;48.514;14.394;2022-09-01T02:37:15;94154.81;;;12.51;80.15
64211;BME280;50528;48.514;14.394;2022-09-01T02:38:18;94155.36;;;12.48;80.21
64211;BME280;50528;48.514;14.394;2022-09-01T02:39:24;94156.25;;;12.47;80.01
64211;BME280;50528;48.514;14.394;2022-09-01T02:40:28;94155.92;;;12.46;80.25
64211;BME280;50528;48.514;14.394;2022-09-01T02:41:32;94157.70;;;12.44;80.18
64211;BME280;50528;48.514;14.394;2022-09-01T02:42:36;94153.46;;;12.41;80.13
64211;BME280;50528;48.514;14.394;2022-09-01T02:43:42;94152.27;;;12.38;80.09
64211;BME280;50528;48.514;14.394;2022-09-01T02:44:47;94156.59;;;12.39;80.23
64211;BME280;50528;48.514;14.394;2022-09-01T02:45:55;94157.76;;;12.37;80.30
64211;BME280;50528;48.514;14.394;2022-09-01T02:46:59;94154.68;;;12.35;80.26
64211;BME280;50528;48.514;14.394;2022-09-01T02:48:06;94156.02;;;12.34;80.46
64211;BME280;50528;48.514;14.394;2022-09-01T02:49:13;94155.32;;;12.33;80.39
64211;BME280;50528;48.514;14.394;2022-09-01T02:50:16;94155.32;;;12.31;80.47
64211;BME280;50528;48.514;14.394;2022-09-01T02:51:22;94149.97;;;12.28;80.66
64211;BME280;50528;48.514;14.394;2022-09-01T02:52:27;94148.58;;;12.26;80.56
64211;BME280;50528;48.514;14.394;2022-09-01T02:53:37;94148.62;;;12.25;80.72
64211;BME280;50528;48.514;14.394;2022-09-01T02:54:41;94147.73;;;12.22;80.70
64211;BME280;50528;48.514;14.394;2022-09-01T02:55:49;94151.63;;;12.21;80.75
64211;BME280;50528;48.514;14.394;2022-09-01T02:56:53;94148.25;;;12.21;80.95
64211;BME280;50528;48.514;14.394;2022-09-01T02:57:56;94152.27;;;12.22;80.97
64211;BME280;50528;48.514;14.394;2022-09-01T02:59:00;94153.06;;;12.21;81.03
64211;BME280;50528;48.514;14.394;2022-09-01T03:00:07;94154.98;;;12.19;81.23
64211;BME280;50528;48.514;14.394;2022-09-01T03:01:23;94153.35;;;12.18;81.77
64211;BME280;50528;48.514;14.394;2022-09-01T03:02:27;94151.80;;;12.16;81.69
64211;BME280;50528;48.514;14.394;2022-09-01T03:03:30;94151.01;;;12.16;81.34
64211;BME280;50528;48.514;14.394;2022-09-01T03:04:37;94151.00;;;12.16;81.08
64211;BME280;50528;48.514;14.394;2022-09-01T03:05:40;94153.23;;;12.16;81.34
64211;BME280;50528;48.514;14.394;2022-09-01T03:06:43;94153.40;;;12.17;81.88
64211;BME280;50528;48.514;14.394;2022-09-01T03:07:49;94156.04;;;12.19;82.01
64211;BME280;50528;48.514;14.394;2022-09-01T03:08:56;94151.58;;;12.22;82.14
64211;BME280;50528;48.514;14.394;2022-09-01T03:10:02;94153.78;;;12.25;81.93
64211;BME280;50528;48.514;14.394;2022-09-01T03:11:11;94158.40;;;12.29;82.00
64211;BME280;50528;48.514;14.394;2022-09-01T03:12:17;94156.74;;;12.30;81.67
64211;BME280;50528;48.514;14.394;2022-09-01T03:13:22;94158.85;;;12.32;81.75
64211;BME280;50528;48.514;14.394;2022-09-01T03:14:29;94154.91;;;12.33;82.05
64211;BME280;50528;48.514;14.394;2022-09-01T03:15:32;94156.28;;;12.33;81.79
64211;BME280;50528;48.514;14.394;2022-09-01T03:16:38;94156.07;;;12.33;81.71
64211;BME280;50528;48.514;14.394;2022-09-01T03:17:41;94158.23;;;12.33;81.54
64211;BME280;50528;48.514;14.394;2022-09-01T03:18:44;94156.01;;;12.33;81.66
64211;BME280;50528;48.514;14.394;2022-09-01T03:19:47;94157.70;;;12.33;81.83
64211;BME280;50528;48.514;14.394;2022-09-01T03:20:52;94154.54;;;12.33;82.10
64211;BME280;50528;48.514;14.394;2022-09-01T03:21:55;94155.64;;;12.33;81.82
64211;BME280;50528;48.514;14.394;2022-09-01T03:23:03;94154.86;;;12.33;81.96
64211;BME280;50528;48.514;14.394;2022-09-01T03:24:08;94158.07;;;12.33;81.87
64211;BME280;50528;48.514;14.394;2022-09-01T03:25:12;94156.80;;;12.33;81.65
64211;BME280;50528;48.514;14.394;2022-09-01T03:26:16;94158.27;;;12.33;82.01
64211;BME280;50528;48.514;14.394;2022-09-01T03:27:21;94158.80;;;12.33;82.09
64211;BME280;50528;48.514;14.394;2022-09-01T03:28:24;94160.02;;;12.33;82.20
64211;BME280;50528;48.514;14.394;2022-09-01T03:29:27;94158.34;;;12.33;81.95
64211;BME280;50528;48.514;14.394;2022-09-01T03:30:31;94157.43;;;12.31;81.75
64211;BME280;50528;48.514;14.394;2022-09-01T03:31:35;94157.69;;;12.30;81.81
64211;BME280;50528;48.514;14.394;2022-09-01T03:32:39;94158.61;;;12.28;82.15
64211;BME280;50528;48.514;14.394;2022-09-01T03:33:42;94156.91;;;12.27;82.25
64211;BME280;50528;48.514;14.394;2022-09-01T03:34:45;94156.95;;;12.27;81.73
64211;BME280;50528;48.514;14.394;2022-09-01T03:35:48;94156.70;;;12.23;81.73
64211;BME280;50528;48.514;14.394;2022-09-01T03:36:51;94157.25;;;12.18;81.73
64211;BME280;50528;48.514;14.394;2022-09-01T03:37:56;94162.56;;;12.17;81.98
64211;BME280;50528;48.514;14.394;2022-09-01T03:39:00;94162.45;;;12.17;82.29
64211;BME280;50528;48.514;14.394;2022-09-01T03:40:05;94161.09;;;12.18;82.55
64211;BME280;50528;48.514;14.394;2022-09-01T03:41:10;94157.50;;;12.17;82.24
64211;BME280;50528;48.514;14.394;2022-09-01T03:42:15;94163.13;;;12.16;81.99
64211;BME280;50528;48.514;14.394;2022-09-01T03:43:22;94159.39;;;12.16;82.11
64211;BME280;50528;48.514;14.394;2022-09-01T03:44:36;94160.91;;;12.17;81.66
64211;BME280;50528;48.514;14.394;2022-09-01T03:45:42;94162.87;;;12.16;81.82
64211;BME280;50528;48.514;14.394;2022-09-01T03:46:45;94167.70;;;12.16;82.15
64211;BME280;50528;48.514;14.394;2022-09-01T03:47:48;94164.55;;;12.16;82.25
64211;BME280;50528;48.514;14.394;2022-09-01T03:48:53;94163.14;;;12.17;82.05
64211;BME280;50528;48.514;14.394;2022-09-01T03:49:56;94163.58;;;12.18;81.95
64211;BME280;50528;48.514;14.394;2022-09-01T03:51:01;94168.75;;;12.18;82.13
64211;BME280;50528;48.514;14.394;2022-09-01T03:52:05;94166.91;;;12.19;82.38
64211;BME280;50528;48.514;14.394;2022-09-01T03:53:11;94166.20;;;12.18;81.89
64211;BME280;50528;48.514;14.394;2022-09-01T03:54:15;94167.89;;;12.18;82.05
64211;BME280;50528;48.514;14.394;2022-09-01T03:55:23;94165.38;;;12.18;81.95
64211;BME280;50528;48.514;14.394;2022-09-01T03:56:29;94166.80;;;12.19;82.13
64211;BME280;50528;48.514;14.394;2022-09-01T03:57:32;94164.05;;;12.20;81.88
64211;BME280;50528;48.514;14.394;2022-09-01T03:58:35;94166.95;;;12.19;81.83
64211;BME280;50528;48.514;14.394;2022-09-01T03:59:39;94165.11;;;12.19;81.91
64211;BME280;50528;48.514;14.394;2022-09-01T04:00:56;94161.69;;;12.18;81.82
64211;BME280;50528;48.514;14.394;2022-09-01T04:02:02;94160.84;;;12.18;81.97
64211;BME280;50528;48.514;14.394;2022-09-01T04:03:06;94158.20;;;12.18;82.12
64211;BME280;50528;48.514;14.394;2022-09-01T04:04:10;94154.30;;;12.18;82.01
64211;BME280;50528;48.514;14.394;2022-09-01T04:05:17;94157.30;;;12.18;82.61
64211;BME280;50528;48.514;14.394;2022-09-01T04:06:26;94158.58;;;12.19;82.44
64211;BME280;50528;48.514;14.394;2022-09-01T04:07:29;94154.84;;;12.19;82.33
64211;BME280;50528;48.514;14.394;2022-09-01T04:08:32;94156.88;;;12.19;82.06
64211;BME280;50528;48.514;14.394;2022-09-01T04:09:35;94155.84;;;12.19;81.93
64211;BME280;50528;48.514;14.394;2022-09-01T04:10:43;94154.63;;;12.19;82.00
64211;BME280;50528;48.514;14.394;2022-09-01T04:11:55;94153.14;;;12.18;81.99
64211;BME280;50528;48.514;14.394;2022-09-01T04:12:58;94152.76;;;12.17;81.98
64211;BME280;50528;48.514;14.394;2022-09-01T04:14:01;94155.51;;;12.17;82.08
64211;BME280;50528;48.514;14.394;2022-09-01T04:15:05;94155.98;;;12.18;82.12
64211;BME280;50528;48.514;14.394;2022-09-01T04:16:19;94158.50;;;12.17;82.26
64211;BME280;50528;48.514;14.394;2022-09-01T04:17:42;94157.77;;;12.17;82.57
64211;BME280;50528;48.514;14.394;2022-09-01T04:19:04;94158.09;;;12.19;82.18
64211;BME280;50528;48.514;14.394;2022-09-01T04:20:18;94160.21;;;12.19;82.21
64211;BME280;50528;48.514;14.394;2022-09-01T04:21:22;94159.16;;;12.19;82.52
64211;BME280;50528;48.514;14.394;2022-09-01T04:22:25;94158.52;;;12.19;82.45
64211;BME280;50528;48.514;14.394;2022-09-01T04:23:32;94157.73;;;12.18;82.48
64211;BME280;50528;48.514;14.394;2022-09-01T04:24:36;94158.09;;;12.18;82.50
64211;BME280;50528;48.514;14.394;2022-09-01T04:25:47;94155.66;;;12.18;82.36
64211;BME280;50528;48.514;14.394;2022-09-01T04:26:51;94151.48;;;12.15;82.66
64211;BME280;50528;48.514;14.394;2022-09-01T04:27:54;94154.74;;;12.16;82.86
64211;BME280;50528;48.514;14.394;2022-09-01T04:29:00;94153.31;;;12.16;82.78
64211;BME280;50528;48.514;14.394;2022-09-01T04:30:04;94155.70;;;12.16;82.64
64211;BME280;50528;48.514;14.394;2022-09-01T04:31:08;94154.08;;;12.18;82.29
64211;BME280;50528;48.514;14.394;2022-09-01T04:32:12;94154.27;;;12.16;82.44
64211;BME280;50528;48.514;14.394;2022-09-01T04:33:15;94151.93;;;12.14;82.73
64211;BME280;50528;48.514;14.394;2022-09-01T04:34:19;94155.58;;;12.15;82.76
64211;BME280;50528;48.514;14.394;2022-09-01T04:35:24;94156.89;;;12.15;82.47
64211;BME280;50528;48.514;14.394;2022-09-01T04:36:45;94158.42;;;12.16;82.53
64211;BME280;50528;48.514;14.394;2022-09-01T04:38:02;94155.81;;;12.18;82.71
64211;BME280;50528;48.514;14.394;2022-09-01T04:39:06;94156.73;;;12.19;83.17
64211;BME280;50528;48.514;14.394;2022-09-01T04:40:13;94155.48;;;12.21;82.92
64211;BME280;50528;48.514;14.394;2022-09-01T04:41:16;94153.39;;;12.23;83.20
64211;BME280;50528;48.514;14.394;2022-09-01T04:42:22;94155.88;;;12.24;82.66
64211;BME280;50528;48.514;14.394;2022-09-01T04:43:26;94156.58;;;12.25;82.86
64211;BME280;50528;48.514;14.394;2022-09-01T04:44:28;94157.98;;;12.27;82.92
64211;BME280;50528;48.514;14.394;2022-09-01T04:45:35;94155.80;;;12.27;83.45
64211;BME280;50528;48.514;14.394;2022-09-01T04:46:41;94156.43;;;12.27;83.33
64211;BME280;50528;48.514;14.394;2022-09-01T04:47:48;94156.33;;;12.27;83.16
64211;BME280;50528;48.514;14.394;2022-09-01T04:48:51;94155.59;;;12.27;83.29
64211;BME280;50528;48.514;14.394;2022-09-01T04:49:56;94155.48;;;12.27;83.33
64211;BME280;50528;48.514;14.394;2022-09-01T04:51:05;94154.66;;;12.28;83.53
64211;BME280;50528;48.514;14.394;2022-09-01T04:52:10;94151.83;;;12.29;83.21
64211;BME280;50528;48.514;14.394;2022-09-01T04:53:14;94153.41;;;12.30;83.26
64211;BME280;50528;48.514;14.394;2022-09-01T04:54:20;94153.85;;;12.33;83.10
64211;BME280;50528;48.514;14.394;2022-09-01T04:55:24;94153.41;;;12.36;83.31
64211;BME280;50528;48.514;14.394;2022-09-01T04:56:30;94150.84;;;12.38;83.33
64211;BME280;50528;48.514;14.394;2022-09-01T04:57:37;94152.50;;;12.40;83.26
64211;BME280;50528;48.514;14.394;2022-09-01T04:58:42;94155.27;;;12.43;83.25
64211;BME280;50528;48.514;14.394;2022-09-01T04:59:46;94152.42;;;12.42;83.97
64211;BME280;50528;48.514;14.394;2022-09-01T05:00:51;94156.27;;;12.42;83.42
64211;BME280;50528;48.514;14.394;2022-09-01T05:01:54;94159.02;;;12.42;82.92
64211;BME280;50528;48.514;14.394;2022-09-01T05:03:02;94159.41;;;12.40;83.42
64211;BME280;50528;48.514;14.394;2022-09-01T05:04:06;94163.94;;;12.40;82.98
64211;BME280;50528;48.514;14.394;2022-09-01T05:05:09;94164.95;;;12.40;83.06
64211;BME280;50528;48.514;14.394;2022-09-01T05:06:15;94164.31;;;12.41;83.06
64211;BME280;50528;48.514;14.394;2022-09-01T05:07:19;94165.34;;;12.42;83.31
64211;BME280;50528;48.514;14.394;2022-09-01T05:08:23;94166.65;;;12.44;83.16
64211;BME280;50528;48.514;14.394;2022-09-01T05:09:31;94169.34;;;12.47;83.02
64211;BME280;50528;48.514;14.394;2022-09-01T05:10:37;94167.23;;;12.49;83.21
64211;BME280;50528;48.514;14.394;2022-09-01T05:11:45;94168.26;;;12.51;83.24
64211;BME280;50528;48.514;14.394;2022-09-01T05:12:50;94164.77;;;12.50;83.07
64211;BME280;50528;48.514;14.394;2022-09-01T05:13:54;94172.41;;;12.54;82.85
64211;BME280;50528;48.514;14.394;2022-09-01T05:14:59;94171.03;;;12.53;82.71
64211;BME280;50528;48.514;14.394;2022-09-01T05:16:09;94169.93;;;12.54;83.17
64211;BME280;50528;48.514;14.394;2022-09-01T05:17:15;94170.83;;;12.55;83.17
64211;BME280;50528;48.514;14.394;2022-09-01T05:18:19;94168.30;;;12.55;82.90
64211;BME280;50528;48.514;14.394;2022-09-01T05:19:25;94175.18;;;12.58;82.95
64211;BME280;50528;48.514;14.394;2022-09-01T05:20:31;94174.05;;;12.59;83.17
64211;BME280;50528;48.514;14.394;2022-09-01T05:21:36;94174.09;;;12.61;83.12
64211;BME280;50528;48.514;14.394;2022-09-01T05:22:40;94172.77;;;12.61;83.09
64211;BME280;50528;48.514;14.394;2022-09-01T05:23:43;94173.82;;;12.59;83.38
64211;BME280;50528;48.514;14.394;2022-09-01T05:24:46;94173.09;;;12.59;82.94
64211;BME280;50528;48.514;14.394;2022-09-01T05:25:56;94173.52;;;12.60;82.98
64211;BME280;50528;48.514;14.394;2022-09-01T05:26:59;94173.89;;;12.60;83.05
64211;BME280;50528;48.514;14.394;2022-09-01T05:28:03;94170.98;;;12.61;82.93
64211;BME280;50528;48.514;14.394;2022-09-01T05:29:06;94174.54;;;12.63;83.07
64211;BME280;50528;48.514;14.394;2022-09-01T05:30:15;94170.39;;;12.65;82.81
64211;BME280;50528;48.514;14.394;2022-09-01T05:31:20;94173.80;;;12.64;82.78
64211;BME280;50528;48.514;14.394;2022-09-01T05:32:24;94170.52;;;12.62;82.61
64211;BME280;50528;48.514;14.394;2022-09-01T05:33:28;94170.56;;;12.60;82.86
64211;BME280;50528;48.514;14.394;2022-09-01T05:34:31;94169.56;;;12.60;82.86
64211;BME280;50528;48.514;14.394;2022-09-01T05:35:38;94170.73;;;12.61;83.08
64211;BME280;50528;48.514;14.394;2022-09-01T05:36:45;94169.85;;;12.64;83.02
64211;BME280;50528;48.514;14.394;2022-09-01T05:37:52;94170.61;;;12.65;83.19
64211;BME280;50528;48.514;14.394;2022-09-01T05:38:58;94163.13;;;12.68;83.05
64211;BME280;50528;48.514;14.394;2022-09-01T05:40:04;94164.91;;;12.71;83.12
64211;BME280;50528;48.514;14.394;2022-09-01T05:41:10;94166.44;;;12.74;83.13
64211;BME280;50528;48.514;14.394;2022-09-01T05:42:16;94165.52;;;12.76;82.98
64211;BME280;50528;48.514;14.394;2022-09-01T05:43:19;94162.42;;;12.79;82.79
64211;BME280;50528;48.514;14.394;2022-09-01T05:44:23;94162.54;;;12.80;82.87
64211;BME280;50528;48.514;14.394;2022-09-01T05:45:26;94160.13;;;12.81;82.71
64211;BME280;50528;48.514;14.394;2022-09-01T05:46:29;94164.61;;;12.82;82.62